Aérodrome :
LOGIN :

S'inscrire | Disclaimer

   EN    FR    IT 

 










Légende :    VFR   VFR Marginal   IFR   IFR Intensif   IFR Très Intensif
Visi : 
Plafond : 
>= 8 km
>= 3000ft
5 à 8 km
1000 à 3000 ft
1500m à 5 km
500 à 1000 ft
800 à 1500m
200 à 500 ft
< 800m
< 200 ft
Symboles :   Orages  Brouillard  Fortes neiges  Fortes précipitations  Vent > 20 kt
SIGMETs :   Divers  Orages  Givrage  Turbulence  Onde Orograph.  Cendres Volcan.






- Altitude de l'aérodrome : 157 ft
- Code IATA : LIL


LFQQ - Lille Lesquin

DERNIER METAR :
  • 211900Z AUTO VRB03KT 0400 0300 R26/0550N R08/0400N FZFG VV/// M01/M01 Q1040 TEMPO 0200

METARs EXPIRÉS :
  • 211830Z AUTO VRB03KT 0350 R26/0450N R08/0400N FZFG VV/// M00/M00 Q1040 NOSIG
  • 211800Z AUTO VRB02KT 0350 0300 R26/0450N R08/0375N FZFG VV/// M00/M00 Q1040 NOSIG
  • 211730Z AUTO VRB02KT 0350 0300 R26/0450N R08/0375N FZFG VV/// M00/M00 Q1040 NOSIG
  • 211700Z AUTO 00000KT 0300 R26/0450N R08/0350N FZFG VV/// M00/M00 Q1040 NOSIG
  • 211630Z AUTO VRB01KT 0300 R26/0500N R08/0350N FZFG VV/// M00/M00 Q1040 BECMG 0500 FG

TAF TAF LFQQ
Valide du 21 à 18h jusqu'au 23 à 00h UTC


211700Z 2118/2224 VRB02KT 0500 FG VV///
TEMPO 2118/2208 0200
FM220800 VRB02KT 0500 FG VV///
TEMPO 2208/2211 0200
BECMG 2211/2214 3000 BR OVC003
PROB40 2220/2224 0500 FG VV///
ATIS : +33 3 20 16 19 54



MET'MAP, la Météo Aéronautique d'un coup d'oeil ! - Copyright ORBIFLY Décembre 2007 - Disclaimer

ORBIFLY MET'MAP TEAM :

Programmation & Développement : Alexandra Zaïnal
Sur une idée originale de : Baudouin d'Aumeries
Assistance à la programmation : Marc-Olivier Méhu
Soutien technique & logistique : Manuel Goepfert

Contact : metmap@orbifly.com




SOURCES & CREDITS :

   NOAA